PAYA/YAK METAR and TAF weather

Enter ICAO airport designator
Station Type Date Time Source
PAYA METAR 2022/05/24 11:53 UTC NOAA

PAYA 241153Z AUTO 08004KT 10SM FEW011 FEW050 OVC060 06/05 A3008 RMK AO2 RAE27 SLP184 P0000 60018 70033 T00610050 10072 20061 58001 TSNO


Station Type Date Time Source
PAYA Decoded METAR 2022/05/24 11:53 UTC NOAA

YAKUTAT AIRPORT, AK, United States (PAYA) 59-30N 139-40W 9M
May 24, 2022 - 07:53 AM EDT / 2022.05.24 1153 UTC
Wind: from the E (080 degrees) at 5 MPH (4 KT):0
Visibility: 10 mile(s):0
Sky conditions: overcast
Precipitation last hour: A trace
Temperature: 43.0 F (6.1 C)
Dew Point: 41.0 F (5.0 C)
Relative Humidity: 92%
Pressure (altimeter): 30.08 in. Hg (1018 hPa)
Pressure tendency: 0.00 inches (0.1 hPa) lower than three hours ago
ob: PAYA 241153Z AUTO 08004KT 10SM FEW011 FEW050 OVC060 06/05 A3008 RMK AO2 RAE27 SLP184 P0000 60018 70033 T00610050 10072 20061 58001 TSNO
cycle: 12

Station Type Date Time Source
PAYA TAF 2022/05/24 12:40 UTC NOAA

TAF PAYA 241138Z 2412/2512 22004KT P6SM -SHRA SCT027 OVC035
FM241900 22006KT P6SM -SHRA SCT015 OVC025
FM250600 VRB05KT P6SM -SHRA OVC030
AMD LTD TO CLD VIS AND WIND

Example: see airport list